createdAt,value
2017-02-11T00:00:55.138Z,1024.3
2017-02-11T00:01:57.410Z,1024.4
2017-02-11T00:02:59.872Z,1024.4
2017-02-11T00:04:02.312Z,1024.4
2017-02-11T00:05:04.748Z,1024.5
2017-02-11T00:07:10.092Z,1024.4
2017-02-11T00:08:12.529Z,1024.4
2017-02-11T00:09:14.629Z,1024.5
2017-02-11T00:10:17.572Z,1024.4
2017-02-11T00:11:20.010Z,1024.4
2017-02-11T00:12:22.451Z,1024.4
2017-02-11T00:13:24.892Z,1024.4
2017-02-11T00:14:27.327Z,1024.3
2017-02-11T00:15:29.765Z,1024.4
2017-02-11T00:16:32.452Z,1024.4
2017-02-11T00:17:34.894Z,1024.3
2017-02-11T00:18:37.335Z,1024.4
2017-02-11T00:20:42.183Z,1024.3
2017-02-11T00:21:44.626Z,1024.3
2017-02-11T00:22:47.074Z,1024.3
2017-02-11T00:24:51.920Z,1024.4
2017-02-11T00:25:54.859Z,1024.4
2017-02-11T00:26:57.299Z,1024.4
2017-02-11T00:27:59.745Z,1024.4
2017-02-11T00:29:02.189Z,1024.5
2017-02-11T00:30:04.630Z,1024.5
2017-02-11T00:31:07.072Z,1024.4
2017-02-11T00:32:09.342Z,1024.5
2017-02-11T00:33:11.783Z,1024.4
2017-02-11T00:34:14.732Z,1024.5
2017-02-11T00:35:17.177Z,1024.5
2017-02-11T00:36:19.619Z,1024.5
2017-02-11T00:37:22.061Z,1024.5
2017-02-11T00:38:24.499Z,1024.5
2017-02-11T00:39:26.935Z,1024.5
2017-02-11T00:40:29.377Z,1024.4
2017-02-11T00:41:31.817Z,1024.5
2017-02-11T00:42:34.281Z,1024.5
2017-02-11T00:43:36.724Z,1024.6
2017-02-11T00:44:39.160Z,1024.6
2017-02-11T00:45:41.603Z,1024.5
2017-02-11T00:46:44.553Z,1024.5
2017-02-11T00:47:46.998Z,1024.5
2017-02-11T00:49:51.673Z,1024.6
2017-02-11T00:50:54.115Z,1024.5
2017-02-11T00:52:59.294Z,1024.5
2017-02-11T00:54:01.736Z,1024.5
2017-02-11T00:55:04.179Z,1024.5
2017-02-11T00:56:06.620Z,1024.5
2017-02-11T00:57:09.061Z,1024.5
2017-02-11T00:58:11.835Z,1024.5
2017-02-11T00:59:14.170Z,1024.5
2017-02-11T01:00:16.617Z,1024.5
2017-02-11T01:01:19.053Z,1024.5
2017-02-11T01:02:21.494Z,1024.5
2017-02-11T01:03:23.934Z,1024.5
2017-02-11T01:04:26.371Z,1024.4
2017-02-11T01:05:29.312Z,1024.4
2017-02-11T01:06:31.751Z,1024.5
2017-02-11T01:07:34.024Z,1024.4
2017-02-11T01:08:36.461Z,1024.4
2017-02-11T01:09:38.908Z,1024.4
2017-02-11T01:10:41.345Z,1024.4
2017-02-11T01:11:43.781Z,1024.4
2017-02-11T01:12:46.727Z,1024.4
2017-02-11T01:13:49.203Z,1024.4
2017-02-11T01:14:51.644Z,1024.4
2017-02-11T01:15:54.086Z,1024.4
2017-02-11T01:16:56.578Z,1024.4
2017-02-11T01:17:59.019Z,1024.3
2017-02-11T01:19:01.458Z,1024.3
2017-02-11T01:20:03.895Z,1024.3
2017-02-11T01:21:06.172Z,1024.3
2017-02-11T01:22:08.607Z,1024.3
2017-02-11T01:23:11.548Z,1024.3
2017-02-11T01:24:13.993Z,1024.3
2017-02-11T01:25:16.396Z,1024.3
2017-02-11T01:26:18.834Z,1024.3
2017-02-11T01:27:21.278Z,1024.4
2017-02-11T01:28:23.748Z,1024.3
2017-02-11T01:29:26.189Z,1024.3
2017-02-11T01:30:28.641Z,1024.3
2017-02-11T01:31:31.078Z,1024.3
2017-02-11T01:32:33.518Z,1024.3
2017-02-11T01:33:35.957Z,1024.3
2017-02-11T01:34:38.399Z,1024.3
2017-02-11T01:35:41.341Z,1024.3
2017-02-11T01:36:43.777Z,1024.2
2017-02-11T01:38:48.619Z,1024.2
2017-02-11T01:39:51.059Z,1024.2
2017-02-11T01:40:53.501Z,1024.2
2017-02-11T01:41:55.776Z,1024.2
2017-02-11T01:42:58.555Z,1024.2
2017-02-11T01:45:03.397Z,1024.2
2017-02-11T01:46:05.839Z,1024.2
2017-02-11T01:47:08.282Z,1024.1
2017-02-11T01:48:10.727Z,1024.1
2017-02-11T01:49:13.173Z,1024.1
2017-02-11T01:50:15.611Z,1024.1
2017-02-11T01:51:18.556Z,1024.1
2017-02-11T01:52:20.998Z,1024.2
2017-02-11T01:53:23.435Z,1024.2
2017-02-11T01:54:25.876Z,1024.2
2017-02-11T01:55:28.316Z,1024.2
2017-02-11T01:56:30.789Z,1024.2
2017-02-11T01:57:33.230Z,1024.1
2017-02-11T01:58:35.671Z,1024.1
2017-02-11T01:59:38.112Z,1024.2
2017-02-11T02:00:40.552Z,1024.2
2017-02-11T02:01:42.991Z,1024.2
2017-02-11T02:02:45.430Z,1024.2
2017-02-11T02:03:48.373Z,1024.1
2017-02-11T02:04:50.808Z,1024.1
2017-02-11T02:05:53.249Z,1024.1
2017-02-11T02:06:55.695Z,1024
2017-02-11T02:07:58.138Z,1024.1
2017-02-11T02:09:00.405Z,1024
2017-02-11T02:11:05.752Z,1024.1
2017-02-11T02:12:08.189Z,1024.1
2017-02-11T02:13:10.295Z,1024.1
2017-02-11T02:14:12.734Z,1024.1
2017-02-11T02:15:15.670Z,1024.1
2017-02-11T02:16:18.112Z,1024.1
2017-02-11T02:17:20.554Z,1024.1
2017-02-11T02:18:22.824Z,1024.1
2017-02-11T02:19:25.265Z,1024.1
2017-02-11T02:20:27.752Z,1024
2017-02-11T02:21:30.187Z,1024.1
2017-02-11T02:23:35.551Z,1024.1
2017-02-11T02:24:37.827Z,1024.1
2017-02-11T02:25:40.260Z,1024.1
2017-02-11T02:26:42.699Z,1024.1
2017-02-11T02:27:45.138Z,1024
2017-02-11T02:28:47.576Z,1024
2017-02-11T02:29:50.015Z,1024
2017-02-11T02:30:52.791Z,1024
2017-02-11T02:34:00.077Z,1024
2017-02-11T02:35:02.517Z,1024.1
2017-02-11T02:36:05.124Z,1024
2017-02-11T02:37:07.559Z,1024.1
2017-02-11T02:38:10.163Z,1024
2017-02-11T02:39:12.605Z,1024
2017-02-11T02:40:14.882Z,1024
2017-02-11T02:41:17.322Z,1024.1
2017-02-11T02:42:20.265Z,1024
2017-02-11T02:43:22.705Z,1024
2017-02-11T02:44:25.151Z,1024
2017-02-11T02:45:27.590Z,1024
2017-02-11T02:46:30.028Z,1024
2017-02-11T02:47:32.477Z,1024
2017-02-11T02:48:34.922Z,1023.9
2017-02-11T02:49:37.361Z,1024
2017-02-11T02:50:39.800Z,1023.9
2017-02-11T02:51:42.235Z,1023.9
2017-02-11T02:52:44.671Z,1024
2017-02-11T02:53:47.109Z,1023.9
2017-02-11T02:54:50.053Z,1023.9
2017-02-11T02:55:52.498Z,1023.9
2017-02-11T02:57:57.343Z,1023.9
2017-02-11T02:58:59.782Z,1023.9
2017-02-11T03:00:02.229Z,1023.9
2017-02-11T03:01:04.670Z,1023.9
2017-02-11T03:02:07.131Z,1023.9
2017-02-11T03:03:09.902Z,1023.9
2017-02-11T03:04:12.342Z,1023.9
2017-02-11T03:05:14.613Z,1023.9
2017-02-11T03:06:17.052Z,1023.9
2017-02-11T03:07:19.521Z,1023.9
2017-02-11T03:08:21.957Z,1023.9
2017-02-11T03:09:24.398Z,1023.9
2017-02-11T03:10:26.838Z,1023.9
2017-02-11T03:11:29.782Z,1023.8
2017-02-11T03:12:32.225Z,1023.8
2017-02-11T03:13:34.674Z,1023.9
2017-02-11T03:14:37.122Z,1023.9
2017-02-11T03:15:39.575Z,1023.9
2017-02-11T03:16:42.024Z,1023.8
2017-02-11T03:17:44.474Z,1023.8
2017-02-11T03:18:46.924Z,1023.8
2017-02-11T03:19:49.375Z,1023.8
2017-02-11T03:20:51.835Z,1023.8
2017-02-11T03:21:54.281Z,1023.8
2017-02-11T03:22:56.729Z,1023.8
2017-02-11T03:23:59.178Z,1023.8
2017-02-11T03:25:01.965Z,1023.8
2017-02-11T03:26:04.266Z,1023.8
2017-02-11T03:27:06.718Z,1023.9
2017-02-11T03:28:09.021Z,1023.8
2017-02-11T03:29:11.804Z,1023.8
2017-02-11T03:30:14.258Z,1023.9
2017-02-11T03:31:16.726Z,1023.9
2017-02-11T03:32:19.171Z,1023.9
2017-02-11T03:33:21.615Z,1023.9
2017-02-11T03:34:24.060Z,1023.9
2017-02-11T03:35:26.505Z,1023.9
2017-02-11T03:36:28.954Z,1023.9
2017-02-11T03:37:31.399Z,1023.9
2017-02-11T03:38:33.844Z,1023.9
2017-02-11T03:39:36.316Z,1023.9
2017-02-11T03:40:39.269Z,1023.9
2017-02-11T03:41:41.714Z,1023.9
2017-02-11T03:42:44.166Z,1023.9
2017-02-11T03:43:46.620Z,1023.9
2017-02-11T03:44:48.908Z,1023.8
2017-02-11T03:45:51.354Z,1023.8
2017-02-11T03:46:53.805Z,1023.9
2017-02-11T03:47:56.592Z,1023.8
2017-02-11T03:48:59.041Z,1023.9
2017-02-11T03:50:01.321Z,1023.8
2017-02-11T03:51:03.605Z,1023.9
2017-02-11T03:52:06.557Z,1023.9
2017-02-11T03:53:08.833Z,1023.9
2017-02-11T03:54:11.301Z,1023.9
2017-02-11T03:55:13.745Z,1023.9
2017-02-11T03:56:16.032Z,1023.9
2017-02-11T03:57:18.515Z,1023.9
2017-02-11T03:58:20.968Z,1023.9
2017-02-11T04:00:26.320Z,1023.9
2017-02-11T04:02:31.182Z,1024
2017-02-11T04:03:33.631Z,1023.9
2017-02-11T04:04:36.076Z,1023.9
2017-02-11T04:07:43.327Z,1023.9
2017-02-11T04:08:45.810Z,1023.9
2017-02-11T04:09:48.260Z,1023.8
2017-02-11T04:10:51.212Z,1023.9
2017-02-11T04:11:53.667Z,1023.8
2017-02-11T04:12:56.137Z,1023.9
2017-02-11T04:13:58.601Z,1023.8
2017-02-11T04:15:01.046Z,1023.8
2017-02-11T04:16:03.495Z,1023.8
2017-02-11T04:17:05.949Z,1023.8
2017-02-11T04:18:08.424Z,1023.8
2017-02-11T04:19:10.705Z,1023.8
2017-02-11T04:20:13.153Z,1023.9
2017-02-11T04:21:15.764Z,1023.9
2017-02-11T04:23:20.613Z,1023.8
2017-02-11T04:24:23.395Z,1023.8
2017-02-11T04:25:25.840Z,1023.8
2017-02-11T04:26:28.285Z,1023.8
2017-02-11T04:27:30.729Z,1023.9
2017-02-11T04:28:33.179Z,1023.8
2017-02-11T04:29:35.627Z,1023.8
2017-02-11T04:30:38.076Z,1023.8
2017-02-11T04:31:40.569Z,1023.9
2017-02-11T04:32:43.016Z,1023.8
2017-02-11T04:33:45.462Z,1023.7
2017-02-11T04:34:47.930Z,1023.8
2017-02-11T04:35:50.711Z,1023.8
2017-02-11T04:36:53.159Z,1023.8
2017-02-11T04:37:55.604Z,1023.8
2017-02-11T04:38:58.056Z,1023.8
2017-02-11T04:40:00.504Z,1023.7
2017-02-11T04:41:02.950Z,1023.8
2017-02-11T04:42:05.396Z,1023.8
2017-02-11T04:43:07.888Z,1023.7
2017-02-11T04:44:10.384Z,1023.8
2017-02-11T04:45:12.833Z,1023.7
2017-02-11T04:46:15.278Z,1023.8
2017-02-11T04:47:17.722Z,1023.8
2017-02-11T04:48:20.171Z,1023.8
2017-02-11T04:49:22.621Z,1023.8
2017-02-11T04:50:25.065Z,1023.8
2017-02-11T04:51:27.515Z,1023.7
2017-02-11T04:52:29.962Z,1023.8
2017-02-11T04:53:32.913Z,1023.8
2017-02-11T04:54:35.363Z,1023.8
2017-02-11T04:55:37.808Z,1023.7
2017-02-11T04:56:40.092Z,1023.7
2017-02-11T04:57:42.541Z,1023.8
2017-02-11T04:58:44.986Z,1023.8
2017-02-11T04:59:47.438Z,1023.7
2017-02-11T05:00:50.217Z,1023.8
2017-02-11T05:01:52.670Z,1023.8
2017-02-11T05:02:55.154Z,1023.8
2017-02-11T05:03:57.600Z,1023.8
2017-02-11T05:06:02.452Z,1023.8
2017-02-11T05:07:04.734Z,1023.8
2017-02-11T05:09:10.089Z,1023.8
2017-02-11T05:10:12.538Z,1023.8
2017-02-11T05:11:14.991Z,1023.8
2017-02-11T05:12:17.435Z,1023.8
2017-02-11T05:13:19.884Z,1023.9
2017-02-11T05:14:22.341Z,1023.9
2017-02-11T05:15:24.792Z,1023.9
2017-02-11T05:16:27.240Z,1023.9
2017-02-11T05:17:29.687Z,1023.9
2017-02-11T05:18:32.135Z,1023.9
2017-02-11T05:19:34.593Z,1023.9
2017-02-11T05:20:37.037Z,1023.9
2017-02-11T05:21:39.488Z,1023.9
2017-02-11T05:22:42.273Z,1023.9
2017-02-11T05:23:44.722Z,1023.9
2017-02-11T05:24:47.167Z,1023.9
2017-02-11T05:25:49.445Z,1023.9
2017-02-11T05:26:52.227Z,1023.9
2017-02-11T05:27:54.677Z,1023.9
2017-02-11T05:28:57.125Z,1023.9
2017-02-11T05:29:59.579Z,1023.9
2017-02-11T05:31:02.024Z,1023.9
2017-02-11T05:32:04.471Z,1024
2017-02-11T05:33:06.897Z,1023.9
2017-02-11T05:34:09.346Z,1024
2017-02-11T05:35:11.794Z,1024
2017-02-11T05:36:14.262Z,1023.9
2017-02-11T05:37:16.708Z,1023.9
2017-02-11T05:38:19.184Z,1023.9
2017-02-11T05:39:22.135Z,1023.9
2017-02-11T05:40:24.581Z,1023.9
2017-02-11T05:41:27.030Z,1024
2017-02-11T05:42:29.478Z,1024
2017-02-11T05:43:31.926Z,1024
2017-02-11T05:44:34.373Z,1024
2017-02-11T05:45:36.829Z,1023.9
2017-02-11T05:46:39.278Z,1024
2017-02-11T05:48:44.150Z,1024
2017-02-11T05:49:46.596Z,1024
2017-02-11T05:50:49.042Z,1024.1
2017-02-11T05:51:51.492Z,1024
2017-02-11T05:52:53.936Z,1024.1
2017-02-11T05:53:56.889Z,1024.1
2017-02-11T05:54:59.171Z,1024.1
2017-02-11T05:56:01.614Z,1024.1
2017-02-11T05:57:04.066Z,1024.1
2017-02-11T05:58:06.508Z,1024.1
2017-02-11T05:59:09.289Z,1024.2
2017-02-11T06:00:11.739Z,1024.2
2017-02-11T06:01:14.198Z,1024.2
2017-02-11T06:02:16.478Z,1024.2
2017-02-11T06:03:18.927Z,1024.2
2017-02-11T06:04:21.398Z,1024.2
2017-02-11T06:05:23.843Z,1024.2
2017-02-11T06:06:26.289Z,1024.2
2017-02-11T06:07:28.730Z,1024.3
2017-02-11T06:08:31.169Z,1024.3
2017-02-11T06:09:33.635Z,1024.2
2017-02-11T06:10:36.419Z,1024.2
2017-02-11T06:11:38.867Z,1024.3
2017-02-11T06:12:41.336Z,1024.3
2017-02-11T06:13:43.789Z,1024.3
2017-02-11T06:14:46.237Z,1024.3
2017-02-11T06:15:48.685Z,1024.3
2017-02-11T06:16:51.151Z,1024.3
2017-02-11T06:17:53.596Z,1024.3
2017-02-11T06:18:56.045Z,1024.3
2017-02-11T06:19:58.492Z,1024.3
2017-02-11T06:21:00.933Z,1024.3
2017-02-11T06:22:03.885Z,1024.3
2017-02-11T06:24:08.735Z,1024.4
2017-02-11T06:25:11.185Z,1024.4
2017-02-11T06:26:13.800Z,1024.4
2017-02-11T06:27:16.269Z,1024.4
2017-02-11T06:28:18.714Z,1024.4
2017-02-11T06:29:21.155Z,1024.4
2017-02-11T06:31:26.156Z,1024.4
2017-02-11T06:33:31.009Z,1024.4
2017-02-11T06:35:35.869Z,1024.4
2017-02-11T06:36:38.319Z,1024.5
2017-02-11T06:37:40.768Z,1024.5
2017-02-11T06:38:43.216Z,1024.5
2017-02-11T06:39:46.026Z,1024.5
2017-02-11T06:40:48.475Z,1024.5
2017-02-11T06:41:50.920Z,1024.5
2017-02-11T06:42:53.200Z,1024.5
2017-02-11T06:44:58.053Z,1024.5
2017-02-11T06:46:00.510Z,1024.5
2017-02-11T06:47:03.296Z,1024.5
2017-02-11T06:48:05.744Z,1024.5
2017-02-11T06:49:08.190Z,1024.6
2017-02-11T06:50:10.636Z,1024.5
2017-02-11T06:51:13.083Z,1024.5
2017-02-11T06:52:15.700Z,1024.6
2017-02-11T06:53:18.143Z,1024.6
2017-02-11T06:54:20.613Z,1024.6
2017-02-11T06:55:23.061Z,1024.6
2017-02-11T06:56:25.509Z,1024.6
2017-02-11T06:57:27.954Z,1024.6
2017-02-11T06:58:30.398Z,1024.6
2017-02-11T06:59:32.846Z,1024.7
2017-02-11T07:00:35.287Z,1024.7
2017-02-11T07:01:37.763Z,1024.7
2017-02-11T07:02:40.211Z,1024.7
2017-02-11T07:03:42.654Z,1024.7
2017-02-11T07:04:45.604Z,1024.7
2017-02-11T07:05:48.073Z,1024.7
2017-02-11T07:06:50.518Z,1024.6
2017-02-11T07:07:52.962Z,1024.7
2017-02-11T07:08:55.432Z,1024.7
2017-02-11T07:09:57.881Z,1024.7
2017-02-11T07:11:00.326Z,1024.7
2017-02-11T07:12:02.796Z,1024.7
2017-02-11T07:14:07.480Z,1024.7
2017-02-11T07:15:10.432Z,1024.8
2017-02-11T07:16:12.889Z,1024.7
2017-02-11T07:17:15.000Z,1024.8
2017-02-11T07:18:17.449Z,1024.7
2017-02-11T07:19:19.893Z,1024.8
2017-02-11T07:20:22.845Z,1024.8
2017-02-11T07:21:25.296Z,1024.8
2017-02-11T07:22:27.748Z,1024.8
2017-02-11T07:23:30.198Z,1024.9
2017-02-11T07:24:32.646Z,1024.8
2017-02-11T07:25:35.095Z,1024.8
2017-02-11T07:26:37.539Z,1024.8
2017-02-11T07:27:39.983Z,1024.9
2017-02-11T07:28:42.430Z,1024.9
2017-02-11T07:29:44.878Z,1024.9
2017-02-11T07:30:47.319Z,1024.9
2017-02-11T07:31:49.768Z,1024.9
2017-02-11T07:32:52.215Z,1024.9
2017-02-11T07:33:54.687Z,1025
2017-02-11T07:34:57.137Z,1024.9
2017-02-11T07:35:59.582Z,1025
2017-02-11T07:37:02.531Z,1025
2017-02-11T07:38:04.979Z,1025
2017-02-11T07:39:07.424Z,1025
2017-02-11T07:40:09.701Z,1025
2017-02-11T07:41:12.146Z,1025
2017-02-11T07:42:14.929Z,1025
2017-02-11T07:43:17.375Z,1025
2017-02-11T07:44:19.652Z,1025
2017-02-11T07:45:22.097Z,1025
2017-02-11T07:46:24.548Z,1024.9
2017-02-11T07:47:26.990Z,1024.9
2017-02-11T07:48:29.437Z,1025
2017-02-11T07:49:31.880Z,1024.9
2017-02-11T07:50:34.328Z,1025
2017-02-11T07:51:37.279Z,1025
2017-02-11T07:52:39.559Z,1025
2017-02-11T07:53:42.039Z,1025
2017-02-11T07:54:44.386Z,1025
2017-02-11T07:56:49.243Z,1025
2017-02-11T07:57:51.716Z,1024.9
2017-02-11T08:00:59.485Z,1025
2017-02-11T08:02:01.932Z,1025
2017-02-11T08:03:04.380Z,1024.9
2017-02-11T08:04:06.866Z,1025
2017-02-11T08:05:09.142Z,1025
2017-02-11T08:07:14.503Z,1025
2017-02-11T08:11:24.166Z,1025
2017-02-11T08:12:26.636Z,1025
2017-02-11T08:13:29.084Z,1025
2017-02-11T08:14:31.533Z,1025
2017-02-11T08:15:33.983Z,1025
2017-02-11T08:16:36.434Z,1025
2017-02-11T08:17:38.888Z,1025
2017-02-11T08:18:41.341Z,1025
2017-02-11T08:20:46.695Z,1025
2017-02-11T08:21:49.143Z,1025
2017-02-11T08:22:51.589Z,1025
2017-02-11T08:23:54.040Z,1025
2017-02-11T08:24:56.482Z,1025
2017-02-11T08:25:58.928Z,1025
2017-02-11T08:27:01.376Z,1025
2017-02-11T08:29:06.232Z,1024.9
2017-02-11T08:30:08.679Z,1024.9
2017-02-11T08:31:11.631Z,1024.9
2017-02-11T08:32:14.084Z,1024.9
2017-02-11T08:33:16.195Z,1024.8
2017-02-11T08:34:18.641Z,1024.8
2017-02-11T08:35:21.427Z,1024.8
2017-02-11T08:36:23.877Z,1024.8
2017-02-11T08:37:26.163Z,1024.9
2017-02-11T08:38:28.604Z,1024.8
2017-02-11T08:39:31.047Z,1024.8
2017-02-11T08:40:33.496Z,1024.8
2017-02-11T08:41:36.444Z,1024.8
2017-02-11T08:42:38.894Z,1024.8
2017-02-11T08:43:41.347Z,1024.8
2017-02-11T08:45:46.198Z,1024.8
2017-02-11T08:46:48.649Z,1024.7
2017-02-11T08:47:51.124Z,1024.7
2017-02-11T08:48:53.573Z,1024.8
2017-02-11T08:49:56.025Z,1024.8
2017-02-11T08:50:58.470Z,1024.9
2017-02-11T08:52:00.919Z,1024.9
2017-02-11T08:53:03.368Z,1024.8
2017-02-11T08:54:05.821Z,1024.8
2017-02-11T08:55:08.274Z,1024.9
2017-02-11T08:56:11.227Z,1024.9
2017-02-11T08:57:13.505Z,1024.8
2017-02-11T08:58:15.822Z,1024.9
2017-02-11T08:59:18.270Z,1024.8
2017-02-11T09:00:20.716Z,1024.8
2017-02-11T09:01:23.672Z,1024.8
2017-02-11T09:02:26.117Z,1024.8
2017-02-11T09:03:28.228Z,1024.8
2017-02-11T09:04:30.671Z,1024.8
2017-02-11T09:05:33.120Z,1024.8
2017-02-11T09:06:36.071Z,1024.8
2017-02-11T09:07:38.519Z,1024.9
2017-02-11T09:08:40.956Z,1024.8
2017-02-11T09:09:43.404Z,1024.8
2017-02-11T09:10:45.685Z,1024.8
2017-02-11T09:11:48.130Z,1024.8
2017-02-11T09:12:50.599Z,1024.9
2017-02-11T09:13:53.046Z,1024.8
2017-02-11T09:14:55.499Z,1024.8
2017-02-11T09:15:58.446Z,1024.8
2017-02-11T09:17:00.727Z,1024.8
2017-02-11T09:18:03.176Z,1024.8
2017-02-11T09:19:05.625Z,1024.8
2017-02-11T09:20:08.072Z,1024.8
2017-02-11T09:21:10.857Z,1024.8
2017-02-11T09:22:13.314Z,1024.8
2017-02-11T09:23:15.595Z,1024.9
2017-02-11T09:24:18.040Z,1024.8
2017-02-11T09:25:20.488Z,1024.8
2017-02-11T09:26:22.937Z,1024.9
2017-02-11T09:27:25.382Z,1024.9
2017-02-11T09:28:28.166Z,1024.8
2017-02-11T09:29:30.606Z,1024.8
2017-02-11T09:30:33.060Z,1024.9
2017-02-11T09:31:35.504Z,1024.8
2017-02-11T09:32:37.952Z,1024.8
2017-02-11T09:33:40.405Z,1024.8
2017-02-11T09:34:42.852Z,1024.8
2017-02-11T09:35:45.642Z,1024.8
2017-02-11T09:36:48.089Z,1024.8
2017-02-11T09:37:50.534Z,1024.8
2017-02-11T09:38:52.976Z,1024.8
2017-02-11T09:39:55.425Z,1024.9
2017-02-11T09:40:57.870Z,1024.8
2017-02-11T09:43:02.732Z,1024.8
2017-02-11T09:44:05.179Z,1024.9
2017-02-11T09:46:10.541Z,1024.8
2017-02-11T09:48:15.227Z,1024.8
2017-02-11T09:50:20.077Z,1024.8
2017-02-11T09:51:22.551Z,1024.9
2017-02-11T09:52:24.998Z,1024.9
2017-02-11T09:53:27.949Z,1024.9
2017-02-11T09:54:30.397Z,1024.8
2017-02-11T09:56:35.246Z,1024.8
2017-02-11T09:57:37.696Z,1024.8
2017-02-11T09:59:54.360Z,1024.8
2017-02-11T10:00:45.248Z,1024.8
2017-02-11T10:01:47.728Z,1024.8
2017-02-11T10:02:50.178Z,1024.8
2017-02-11T10:03:52.626Z,1024.7
2017-02-11T10:05:57.478Z,1024.7
2017-02-11T10:06:59.924Z,1024.7
2017-02-11T10:09:04.781Z,1024.8
2017-02-11T10:10:07.754Z,1024.8
2017-02-11T10:11:10.037Z,1024.8
2017-02-11T10:12:12.479Z,1024.8
2017-02-11T10:13:14.927Z,1024.8
2017-02-11T10:14:17.377Z,1024.8
2017-02-11T10:15:19.826Z,1024.7
2017-02-11T10:16:22.619Z,1024.8
2017-02-11T10:17:24.894Z,1024.9
2017-02-11T10:18:27.172Z,1024.8
2017-02-11T10:19:30.127Z,1024.8
2017-02-11T10:20:32.576Z,1024.8
2017-02-11T10:21:35.022Z,1024.8
2017-02-11T10:22:37.471Z,1024.9
2017-02-11T10:23:39.914Z,1024.9
2017-02-11T10:24:42.195Z,1024.8
2017-02-11T10:25:44.647Z,1024.9
2017-02-11T10:26:47.092Z,1024.9
2017-02-11T10:27:49.878Z,1024.9
2017-02-11T10:28:52.329Z,1024.8
2017-02-11T10:29:54.783Z,1024.8
2017-02-11T10:30:57.226Z,1024.8
2017-02-11T10:31:59.670Z,1024.8
2017-02-11T10:33:02.158Z,1024.8
2017-02-11T10:34:04.605Z,1024.8
2017-02-11T10:35:07.384Z,1024.8
2017-02-11T10:36:09.829Z,1024.9
2017-02-11T10:37:12.109Z,1024.9
2017-02-11T10:38:14.893Z,1024.9
2017-02-11T10:39:17.342Z,1024.8
2017-02-11T10:40:19.791Z,1024.9
2017-02-11T10:41:22.239Z,1024.8
2017-02-11T10:42:24.692Z,1024.8
2017-02-11T10:43:27.141Z,1024.8
2017-02-11T10:44:29.586Z,1024.9
2017-02-11T10:45:32.034Z,1024.8
2017-02-11T10:46:34.480Z,1024.8
2017-02-11T10:47:36.926Z,1024.8
2017-02-11T10:48:39.375Z,1024.8
2017-02-11T10:49:42.327Z,1024.8
2017-02-11T10:50:44.442Z,1024.8
2017-02-11T10:51:46.889Z,1024.8
2017-02-11T10:52:49.331Z,1024.8
2017-02-11T10:53:52.279Z,1024.7
2017-02-11T10:54:54.736Z,1024.8
2017-02-11T10:58:02.001Z,1024.8
2017-02-11T10:59:04.452Z,1024.7
2017-02-11T11:00:06.900Z,1024.8
2017-02-11T11:01:09.349Z,1024.8
2017-02-11T11:02:11.797Z,1024.8
2017-02-11T11:03:14.582Z,1024.8
2017-02-11T11:04:17.049Z,1024.9
2017-02-11T11:05:19.498Z,1024.9
2017-02-11T11:06:21.944Z,1024.9
2017-02-11T11:07:24.416Z,1024.8
2017-02-11T11:08:26.865Z,1024.9
2017-02-11T11:09:29.142Z,1024.9
2017-02-11T11:10:32.096Z,1024.8
2017-02-11T11:12:36.948Z,1024.8
2017-02-11T11:13:39.400Z,1024.9
2017-02-11T11:14:41.846Z,1024.9
2017-02-11T11:15:44.128Z,1024.8
2017-02-11T11:16:46.940Z,1024.8
2017-02-11T11:17:49.386Z,1024.8
2017-02-11T11:18:51.885Z,1024.8
2017-02-11T11:19:54.332Z,1024.8
2017-02-11T11:20:56.781Z,1024.9
2017-02-11T11:21:59.229Z,1024.8
2017-02-11T11:23:01.679Z,1024.8
2017-02-11T11:24:04.132Z,1024.8
2017-02-11T11:25:06.580Z,1024.8
2017-02-11T11:26:09.023Z,1024.8
2017-02-11T11:28:14.374Z,1024.7
2017-02-11T11:30:19.222Z,1024.8
2017-02-11T11:31:21.671Z,1024.8
2017-02-11T11:32:24.116Z,1024.8
2017-02-11T11:33:26.566Z,1024.8
2017-02-11T11:34:29.011Z,1024.8
2017-02-11T11:35:31.794Z,1024.8
2017-02-11T11:36:34.074Z,1024.8
2017-02-11T11:37:36.542Z,1024.7
2017-02-11T11:38:38.991Z,1024.8
2017-02-11T11:39:41.446Z,1024.8
2017-02-11T11:40:43.894Z,1024.8
2017-02-11T11:41:46.680Z,1024.8
2017-02-11T11:42:49.162Z,1024.8
2017-02-11T11:44:54.020Z,1024.8
2017-02-11T11:45:56.471Z,1024.8
2017-02-11T11:46:58.917Z,1024.7
2017-02-11T11:48:01.357Z,1024.7
2017-02-11T11:50:06.710Z,1024.8
2017-02-11T11:51:08.986Z,1024.8
2017-02-11T11:52:11.436Z,1024.8
2017-02-11T11:53:13.884Z,1024.8
2017-02-11T11:54:16.333Z,1024.8
2017-02-11T11:55:19.286Z,1024.8
2017-02-11T11:56:21.564Z,1024.8
2017-02-11T11:57:24.014Z,1024.8
2017-02-11T11:58:26.464Z,1024.7
2017-02-11T11:59:28.912Z,1024.7
2017-02-11T12:00:31.360Z,1024.8
2017-02-11T12:01:33.806Z,1024.7
2017-02-11T12:02:36.276Z,1024.7
2017-02-11T12:03:39.226Z,1024.8
2017-02-11T12:04:41.679Z,1024.7
2017-02-11T12:05:43.955Z,1024.8
2017-02-11T12:06:46.405Z,1024.8
2017-02-11T12:07:48.854Z,1024.7
2017-02-11T12:08:51.304Z,1024.7
2017-02-11T12:09:53.755Z,1024.7
2017-02-11T12:10:56.203Z,1024.7
2017-02-11T12:11:59.157Z,1024.6
2017-02-11T12:13:01.608Z,1024.7
2017-02-11T12:14:04.057Z,1024.7
2017-02-11T12:15:06.338Z,1024.6
2017-02-11T12:16:08.784Z,1024.7
2017-02-11T12:17:11.563Z,1024.7
2017-02-11T12:18:14.014Z,1024.7
2017-02-11T12:19:16.326Z,1024.7
2017-02-11T12:20:18.774Z,1024.7
2017-02-11T12:21:21.281Z,1024.7
2017-02-11T12:22:24.075Z,1024.6
2017-02-11T12:23:26.521Z,1024.6
2017-02-11T12:24:28.992Z,1024.8
2017-02-11T12:25:31.268Z,1024.7
2017-02-11T12:26:33.714Z,1024.7
2017-02-11T12:27:36.190Z,1024.7
2017-02-11T12:28:38.657Z,1024.7
2017-02-11T12:29:41.103Z,1024.7
2017-02-11T12:30:44.052Z,1024.6
2017-02-11T12:31:46.332Z,1024.7
2017-02-11T12:32:48.781Z,1024.7
2017-02-11T12:33:51.226Z,1024.7
2017-02-11T12:34:53.671Z,1024.6
2017-02-11T12:35:56.169Z,1024.7
2017-02-11T12:36:58.616Z,1024.7
2017-02-11T12:38:01.062Z,1024.7
2017-02-11T12:39:04.017Z,1024.7
2017-02-11T12:40:06.462Z,1024.7
2017-02-11T12:41:08.738Z,1024.7
2017-02-11T12:42:11.185Z,1024.7
2017-02-11T12:43:13.631Z,1024.7
2017-02-11T12:44:16.081Z,1024.8
2017-02-11T12:45:18.530Z,1024.7
2017-02-11T12:46:21.484Z,1024.7
2017-02-11T12:47:23.926Z,1024.7
2017-02-11T12:48:26.279Z,1024.7
2017-02-11T12:49:28.731Z,1024.7
2017-02-11T12:50:31.180Z,1024.6
2017-02-11T12:51:33.637Z,1024.7
2017-02-11T12:52:36.082Z,1024.6
2017-02-11T12:53:38.864Z,1024.6
2017-02-11T12:54:41.310Z,1024.5
2017-02-11T12:56:46.159Z,1024.5
2017-02-11T12:57:48.608Z,1024.5
2017-02-11T12:58:51.056Z,1024.6
2017-02-11T12:59:53.500Z,1024.5
2017-02-11T13:00:56.282Z,1024.5
2017-02-11T13:01:58.731Z,1024.5
2017-02-11T13:03:01.183Z,1024.5
2017-02-11T13:04:03.633Z,1024.5
2017-02-11T13:07:11.231Z,1024.5
2017-02-11T13:08:13.680Z,1024.5
2017-02-11T13:09:16.123Z,1024.5
2017-02-11T13:10:18.569Z,1024.5
2017-02-11T13:11:21.018Z,1024.5
2017-02-11T13:12:23.837Z,1024.5
2017-02-11T13:14:28.525Z,1024.5
2017-02-11T13:15:31.144Z,1024.5
2017-02-11T13:16:33.424Z,1024.5
2017-02-11T13:17:35.872Z,1024.5
2017-02-11T13:18:38.662Z,1024.5
2017-02-11T13:19:41.108Z,1024.5
2017-02-11T16:27:09.982Z,1024.9
2017-02-11T16:29:14.834Z,1024.8
2017-02-11T16:30:17.787Z,1024.9
2017-02-11T16:33:24.879Z,1024.9
2017-02-11T16:34:27.324Z,1024.9
2017-02-11T16:35:29.989Z,1024.8
2017-02-11T16:36:32.436Z,1024.9
2017-02-11T16:37:35.246Z,1024.9
2017-02-11T16:38:37.526Z,1024.9
2017-02-11T16:39:39.806Z,1024.9
2017-02-11T16:40:42.255Z,1024.9
2017-02-11T16:41:45.212Z,1024.9
2017-02-11T16:42:47.658Z,1024.9
2017-02-11T16:45:54.921Z,1024.9
2017-02-11T16:46:57.393Z,1024.9
2017-02-11T16:48:00.176Z,1024.9
2017-02-11T16:50:04.864Z,1025
2017-02-11T16:51:07.278Z,1025
2017-02-11T16:52:09.729Z,1024.9
2017-02-11T16:53:12.177Z,1024.9
2017-02-11T16:54:14.793Z,1024.9
2017-02-11T16:55:17.261Z,1024.9
2017-02-11T16:56:19.705Z,1024.8
2017-02-11T16:57:22.489Z,1024.9
2017-02-11T16:58:24.941Z,1024.9
2017-02-11T17:00:29.625Z,1025
2017-02-11T17:01:32.085Z,1024.9
2017-02-11T17:03:37.442Z,1024.9
2017-02-11T17:04:39.891Z,1024.9
2017-02-11T17:05:42.344Z,1024.9
2017-02-11T17:06:44.792Z,1025
2017-02-11T17:07:47.242Z,1025
2017-02-11T17:08:49.690Z,1025
2017-02-11T17:09:52.134Z,1025
2017-02-11T17:10:54.584Z,1025
2017-02-11T17:11:57.032Z,1025
2017-02-11T17:12:59.503Z,1025
2017-02-11T17:14:01.950Z,1025
2017-02-11T17:15:04.732Z,1025
2017-02-11T17:16:07.201Z,1025
2017-02-11T17:17:09.655Z,1025